Terminal Aerodrome Forecast
Issued by NWS

Home | Current Version | Previous Version | Text Only | Print | Product List | Glossary On
Versions: 1 2 3 4 5 6 7 8 9 10 11 12 13 14 15 16 17 18 19 20 21 22 23 24 25 26 27 28
796
FTUS41 KOKX 041120
TAFGON
TAF
KGON 041120Z 0412/0512 34010KT P6SM FEW050 SCT250
     FM042200 35007KT P6SM BKN250
     FM050000 VRB03KT P6SM BKN120 BKN250
     FM050900 VRB04KT 5SM -SN SCT020 OVC040
     FM051100 VRB05KT 3SM -SN SCT010 BKN020 OVC035=

USA.gov is the U.S. government's official web portal to all federal, state and local government web resources and services.